Search for airport 
image banner adimage banner adimage banner ad
image banner ad

08CA - Pg&E Co Placerville Svc Center

Located in Diamond Springs, United States

ICAO - 08CA, IATA -

Data provided by Airmate  

General information

Coordinates: N38°41'43" W120°49'34"
Elevation is 1810 feet MSL.
Magnetic variation is 16° East
View others Airports in California

Operational data

Special qualification required
Current time UTC:
Current local time:
Weather at : KPVF - Placerville ( 7 km )
METAR: KPVF 210315Z AUTO 00000KT 10SM SCT065 23/02 A3009 RMK AO1
View NOTAMs / SUP AIP / TFR affecting this airport [VIEW]
Communications frequencies: [VIEW]

Runways:

Airport contact information

Address: Diamond Springs United States

Satellite view of 08CA